sensor_id;sensor_type;location;lat;lon;timestamp;P1;durP1;ratioP1;P2;durP2;ratioP2
65373;SDS011;52070;53.760;9.678;2022-10-16T00:00:40;13.73;;;7.75;;
65373;SDS011;52070;53.760;9.678;2022-10-16T00:03:08;10.88;;;7.40;;
65373;SDS011;52070;53.760;9.678;2022-10-16T00:05:37;10.93;;;7.22;;
65373;SDS011;52070;53.760;9.678;2022-10-16T00:08:05;12.02;;;6.80;;
65373;SDS011;52070;53.760;9.678;2022-10-16T00:10:34;10.30;;;6.95;;
65373;SDS011;52070;53.760;9.678;2022-10-16T00:13:02;13.88;;;7.57;;
65373;SDS011;52070;53.760;9.678;2022-10-16T00:15:29;11.48;;;7.47;;
65373;SDS011;52070;53.760;9.678;2022-10-16T00:17:57;12.32;;;7.25;;
65373;SDS011;52070;53.760;9.678;2022-10-16T00:20:24;12.13;;;6.95;;
65373;SDS011;52070;53.760;9.678;2022-10-16T00:22:51;13.45;;;7.35;;
65373;SDS011;52070;53.760;9.678;2022-10-16T00:25:18;15.00;;;7.80;;
65373;SDS011;52070;53.760;9.678;2022-10-16T00:27:46;11.68;;;6.70;;
65373;SDS011;52070;53.760;9.678;2022-10-16T00:30:13;10.90;;;6.82;;
65373;SDS011;52070;53.760;9.678;2022-10-16T00:32:40;11.30;;;6.82;;
65373;SDS011;52070;53.760;9.678;2022-10-16T00:35:07;15.90;;;7.57;;
65373;SDS011;52070;53.760;9.678;2022-10-16T00:37:34;13.73;;;7.50;;
65373;SDS011;52070;53.760;9.678;2022-10-16T00:40:01;14.43;;;7.15;;
65373;SDS011;52070;53.760;9.678;2022-10-16T00:42:28;10.13;;;6.65;;
65373;SDS011;52070;53.760;9.678;2022-10-16T00:44:56;13.80;;;6.70;;
65373;SDS011;52070;53.760;9.678;2022-10-16T00:47:25;17.50;;;7.07;;
65373;SDS011;52070;53.760;9.678;2022-10-16T00:49:56;13.02;;;6.82;;
65373;SDS011;52070;53.760;9.678;2022-10-16T00:52:26;10.88;;;6.10;;
65373;SDS011;52070;53.760;9.678;2022-10-16T00:54:53;11.73;;;6.22;;
65373;SDS011;52070;53.760;9.678;2022-10-16T00:57:21;16.65;;;6.15;;
65373;SDS011;52070;53.760;9.678;2022-10-16T00:59:49;9.57;;;5.82;;
65373;SDS011;52070;53.760;9.678;2022-10-16T01:02:17;10.63;;;5.68;;
65373;SDS011;52070;53.760;9.678;2022-10-16T01:04:45;13.77;;;5.47;;
65373;SDS011;52070;53.760;9.678;2022-10-16T01:07:17;9.53;;;4.33;;
65373;SDS011;52070;53.760;9.678;2022-10-16T01:09:54;8.05;;;4.55;;
65373;SDS011;52070;53.760;9.678;2022-10-16T01:12:35;9.70;;;4.20;;
65373;SDS011;52070;53.760;9.678;2022-10-16T01:15:08;13.68;;;4.40;;
65373;SDS011;52070;53.760;9.678;2022-10-16T01:17:45;7.45;;;3.83;;
65373;SDS011;52070;53.760;9.678;2022-10-16T01:20:18;7.47;;;3.83;;
65373;SDS011;52070;53.760;9.678;2022-10-16T01:22:57;8.63;;;3.72;;
65373;SDS011;52070;53.760;9.678;2022-10-16T01:25:33;7.90;;;3.63;;
65373;SDS011;52070;53.760;9.678;2022-10-16T01:28:11;6.25;;;3.35;;
65373;SDS011;52070;53.760;9.678;2022-10-16T01:30:41;9.75;;;3.35;;
65373;SDS011;52070;53.760;9.678;2022-10-16T01:33:12;4.75;;;2.88;;
65373;SDS011;52070;53.760;9.678;2022-10-16T01:35:44;5.13;;;2.50;;
65373;SDS011;52070;53.760;9.678;2022-10-16T01:38:15;9.43;;;2.90;;
65373;SDS011;52070;53.760;9.678;2022-10-16T01:40:46;7.75;;;2.75;;
65373;SDS011;52070;53.760;9.678;2022-10-16T01:43:19;7.53;;;2.90;;
65373;SDS011;52070;53.760;9.678;2022-10-16T01:45:48;8.15;;;3.00;;
65373;SDS011;52070;53.760;9.678;2022-10-16T01:48:17;5.10;;;2.67;;
65373;SDS011;52070;53.760;9.678;2022-10-16T01:50:49;6.68;;;2.75;;
65373;SDS011;52070;53.760;9.678;2022-10-16T01:53:18;6.75;;;2.83;;
65373;SDS011;52070;53.760;9.678;2022-10-16T01:55:46;4.80;;;3.17;;
65373;SDS011;52070;53.760;9.678;2022-10-16T01:58:15;7.18;;;2.53;;
65373;SDS011;52070;53.760;9.678;2022-10-16T02:00:44;5.95;;;2.60;;
65373;SDS011;52070;53.760;9.678;2022-10-16T02:03:14;5.95;;;2.53;;
65373;SDS011;52070;53.760;9.678;2022-10-16T02:05:45;4.77;;;2.17;;
65373;SDS011;52070;53.760;9.678;2022-10-16T02:08:13;7.57;;;2.63;;
65373;SDS011;52070;53.760;9.678;2022-10-16T02:10:40;8.90;;;2.63;;
65373;SDS011;52070;53.760;9.678;2022-10-16T02:13:08;5.38;;;2.50;;
65373;SDS011;52070;53.760;9.678;2022-10-16T02:15:37;5.32;;;2.50;;
65373;SDS011;52070;53.760;9.678;2022-10-16T02:18:05;5.25;;;2.30;;
65373;SDS011;52070;53.760;9.678;2022-10-16T02:20:34;8.13;;;2.30;;
65373;SDS011;52070;53.760;9.678;2022-10-16T02:23:04;3.80;;;2.20;;
65373;SDS011;52070;53.760;9.678;2022-10-16T02:25:34;5.57;;;2.22;;
65373;SDS011;52070;53.760;9.678;2022-10-16T02:28:07;7.93;;;2.38;;
65373;SDS011;52070;53.760;9.678;2022-10-16T02:30:39;10.60;;;2.42;;
65373;SDS011;52070;53.760;9.678;2022-10-16T02:35:39;17.17;;;2.38;;
65373;SDS011;52070;53.760;9.678;2022-10-16T02:38:08;3.65;;;2.20;;
65373;SDS011;52070;53.760;9.678;2022-10-16T02:40:36;6.53;;;2.33;;
65373;SDS011;52070;53.760;9.678;2022-10-16T02:43:03;6.35;;;2.33;;
65373;SDS011;52070;53.760;9.678;2022-10-16T02:45:32;7.32;;;2.33;;
65373;SDS011;52070;53.760;9.678;2022-10-16T02:47:59;10.25;;;2.20;;
65373;SDS011;52070;53.760;9.678;2022-10-16T02:50:27;4.88;;;2.05;;
65373;SDS011;52070;53.760;9.678;2022-10-16T02:52:54;7.97;;;2.28;;
65373;SDS011;52070;53.760;9.678;2022-10-16T02:55:21;5.43;;;2.47;;
65373;SDS011;52070;53.760;9.678;2022-10-16T02:57:48;6.25;;;2.40;;
65373;SDS011;52070;53.760;9.678;2022-10-16T03:00:15;9.95;;;2.00;;
65373;SDS011;52070;53.760;9.678;2022-10-16T03:02:43;5.57;;;1.90;;
65373;SDS011;52070;53.760;9.678;2022-10-16T03:05:10;2.85;;;1.80;;
65373;SDS011;52070;53.760;9.678;2022-10-16T03:07:39;10.02;;;1.90;;
65373;SDS011;52070;53.760;9.678;2022-10-16T03:10:06;6.57;;;1.80;;
65373;SDS011;52070;53.760;9.678;2022-10-16T03:12:34;4.53;;;2.00;;
65373;SDS011;52070;53.760;9.678;2022-10-16T03:15:01;4.93;;;1.95;;
65373;SDS011;52070;53.760;9.678;2022-10-16T03:17:28;8.25;;;1.95;;
65373;SDS011;52070;53.760;9.678;2022-10-16T03:19:54;7.97;;;2.08;;
65373;SDS011;52070;53.760;9.678;2022-10-16T03:22:21;4.63;;;1.77;;
65373;SDS011;52070;53.760;9.678;2022-10-16T03:24:49;7.65;;;1.85;;
65373;SDS011;52070;53.760;9.678;2022-10-16T03:27:16;9.57;;;1.77;;
65373;SDS011;52070;53.760;9.678;2022-10-16T03:29:43;8.90;;;1.80;;
65373;SDS011;52070;53.760;9.678;2022-10-16T03:32:10;7.38;;;1.80;;
65373;SDS011;52070;53.760;9.678;2022-10-16T03:34:37;7.28;;;1.95;;
65373;SDS011;52070;53.760;9.678;2022-10-16T03:37:04;5.85;;;1.85;;
65373;SDS011;52070;53.760;9.678;2022-10-16T03:39:31;5.90;;;1.55;;
65373;SDS011;52070;53.760;9.678;2022-10-16T03:41:59;5.60;;;1.58;;
65373;SDS011;52070;53.760;9.678;2022-10-16T03:44:26;4.20;;;1.70;;
65373;SDS011;52070;53.760;9.678;2022-10-16T03:46:53;4.13;;;1.33;;
65373;SDS011;52070;53.760;9.678;2022-10-16T03:49:20;3.88;;;1.45;;
65373;SDS011;52070;53.760;9.678;2022-10-16T03:51:47;8.02;;;1.60;;
65373;SDS011;52070;53.760;9.678;2022-10-16T03:54:14;4.72;;;1.40;;
65373;SDS011;52070;53.760;9.678;2022-10-16T03:56:41;8.73;;;1.73;;
65373;SDS011;52070;53.760;9.678;2022-10-16T03:59:09;4.85;;;1.50;;
65373;SDS011;52070;53.760;9.678;2022-10-16T04:01:36;6.28;;;1.48;;
65373;SDS011;52070;53.760;9.678;2022-10-16T04:04:03;9.00;;;1.73;;
65373;SDS011;52070;53.760;9.678;2022-10-16T04:06:29;5.18;;;1.77;;
65373;SDS011;52070;53.760;9.678;2022-10-16T04:08:56;4.00;;;1.60;;
65373;SDS011;52070;53.760;9.678;2022-10-16T04:11:23;9.73;;;1.40;;
65373;SDS011;52070;53.760;9.678;2022-10-16T04:13:50;4.40;;;1.80;;
65373;SDS011;52070;53.760;9.678;2022-10-16T04:16:18;7.35;;;1.88;;
65373;SDS011;52070;53.760;9.678;2022-10-16T04:18:45;10.43;;;1.88;;
65373;SDS011;52070;53.760;9.678;2022-10-16T04:21:12;5.15;;;1.42;;
65373;SDS011;52070;53.760;9.678;2022-10-16T04:23:39;3.05;;;1.48;;
65373;SDS011;52070;53.760;9.678;2022-10-16T04:26:06;8.52;;;1.67;;
65373;SDS011;52070;53.760;9.678;2022-10-16T04:28:33;7.25;;;1.40;;
65373;SDS011;52070;53.760;9.678;2022-10-16T04:31:00;5.55;;;1.92;;
65373;SDS011;52070;53.760;9.678;2022-10-16T04:33:31;4.63;;;1.98;;
65373;SDS011;52070;53.760;9.678;2022-10-16T04:35:58;7.28;;;1.35;;
65373;SDS011;52070;53.760;9.678;2022-10-16T04:38:25;3.55;;;1.20;;
65373;SDS011;52070;53.760;9.678;2022-10-16T04:40:53;4.25;;;1.40;;
65373;SDS011;52070;53.760;9.678;2022-10-16T04:43:20;6.55;;;1.50;;
65373;SDS011;52070;53.760;9.678;2022-10-16T04:45:47;5.90;;;1.48;;
65373;SDS011;52070;53.760;9.678;2022-10-16T04:48:16;4.38;;;1.50;;
65373;SDS011;52070;53.760;9.678;2022-10-16T04:50:44;2.65;;;1.27;;
65373;SDS011;52070;53.760;9.678;2022-10-16T04:53:11;3.08;;;1.38;;
65373;SDS011;52070;53.760;9.678;2022-10-16T04:55:38;4.40;;;1.40;;
65373;SDS011;52070;53.760;9.678;2022-10-16T04:58:05;5.47;;;1.63;;
65373;SDS011;52070;53.760;9.678;2022-10-16T05:00:32;4.05;;;1.23;;
65373;SDS011;52070;53.760;9.678;2022-10-16T05:02:58;7.43;;;2.10;;
65373;SDS011;52070;53.760;9.678;2022-10-16T05:05:26;5.07;;;1.50;;
65373;SDS011;52070;53.760;9.678;2022-10-16T05:07:54;4.90;;;1.48;;
65373;SDS011;52070;53.760;9.678;2022-10-16T05:10:21;6.38;;;1.70;;
65373;SDS011;52070;53.760;9.678;2022-10-16T05:12:48;4.75;;;1.70;;
65373;SDS011;52070;53.760;9.678;2022-10-16T05:15:15;4.78;;;1.50;;
65373;SDS011;52070;53.760;9.678;2022-10-16T05:17:42;3.65;;;1.42;;
65373;SDS011;52070;53.760;9.678;2022-10-16T05:20:09;6.60;;;1.65;;
65373;SDS011;52070;53.760;9.678;2022-10-16T05:22:36;3.85;;;1.60;;
65373;SDS011;52070;53.760;9.678;2022-10-16T05:25:05;6.93;;;2.00;;
65373;SDS011;52070;53.760;9.678;2022-10-16T05:27:32;6.57;;;1.70;;
65373;SDS011;52070;53.760;9.678;2022-10-16T05:29:59;5.55;;;1.70;;
65373;SDS011;52070;53.760;9.678;2022-10-16T05:32:26;3.38;;;1.45;;
65373;SDS011;52070;53.760;9.678;2022-10-16T05:34:53;4.20;;;1.90;;
65373;SDS011;52070;53.760;9.678;2022-10-16T05:37:20;3.30;;;1.52;;
65373;SDS011;52070;53.760;9.678;2022-10-16T05:39:47;6.05;;;1.63;;
65373;SDS011;52070;53.760;9.678;2022-10-16T05:42:15;6.57;;;2.03;;
65373;SDS011;52070;53.760;9.678;2022-10-16T05:44:42;5.07;;;1.98;;
65373;SDS011;52070;53.760;9.678;2022-10-16T05:47:09;5.25;;;1.92;;
65373;SDS011;52070;53.760;9.678;2022-10-16T05:49:36;5.63;;;2.08;;
65373;SDS011;52070;53.760;9.678;2022-10-16T05:52:03;6.78;;;2.10;;
65373;SDS011;52070;53.760;9.678;2022-10-16T05:54:30;7.05;;;2.03;;
65373;SDS011;52070;53.760;9.678;2022-10-16T05:56:57;8.27;;;2.20;;
65373;SDS011;52070;53.760;9.678;2022-10-16T05:59:25;6.63;;;2.55;;
65373;SDS011;52070;53.760;9.678;2022-10-16T06:01:52;7.47;;;2.30;;
65373;SDS011;52070;53.760;9.678;2022-10-16T06:04:19;5.43;;;2.05;;
65373;SDS011;52070;53.760;9.678;2022-10-16T06:06:46;6.53;;;2.42;;
65373;SDS011;52070;53.760;9.678;2022-10-16T06:09:13;6.13;;;2.90;;
65373;SDS011;52070;53.760;9.678;2022-10-16T06:11:41;6.93;;;3.15;;
65373;SDS011;52070;53.760;9.678;2022-10-16T06:14:08;8.27;;;3.20;;
65373;SDS011;52070;53.760;9.678;2022-10-16T06:16:39;10.85;;;3.40;;
65373;SDS011;52070;53.760;9.678;2022-10-16T06:19:09;11.65;;;3.08;;
65373;SDS011;52070;53.760;9.678;2022-10-16T06:21:36;8.07;;;3.22;;
65373;SDS011;52070;53.760;9.678;2022-10-16T06:24:03;9.73;;;3.17;;
65373;SDS011;52070;53.760;9.678;2022-10-16T06:26:30;9.45;;;3.30;;
65373;SDS011;52070;53.760;9.678;2022-10-16T06:28:58;9.57;;;3.42;;
65373;SDS011;52070;53.760;9.678;2022-10-16T06:31:26;12.57;;;3.45;;
65373;SDS011;52070;53.760;9.678;2022-10-16T06:33:57;8.10;;;3.70;;
65373;SDS011;52070;53.760;9.678;2022-10-16T06:36:24;12.40;;;4.82;;
65373;SDS011;52070;53.760;9.678;2022-10-16T06:38:52;9.02;;;4.10;;
65373;SDS011;52070;53.760;9.678;2022-10-16T06:41:20;9.98;;;3.90;;
65373;SDS011;52070;53.760;9.678;2022-10-16T06:43:48;13.27;;;4.20;;
65373;SDS011;52070;53.760;9.678;2022-10-16T06:46:16;8.85;;;4.03;;
65373;SDS011;52070;53.760;9.678;2022-10-16T06:48:45;10.27;;;4.45;;
65373;SDS011;52070;53.760;9.678;2022-10-16T06:51:14;8.45;;;3.92;;
65373;SDS011;52070;53.760;9.678;2022-10-16T06:53:43;10.23;;;4.73;;
65373;SDS011;52070;53.760;9.678;2022-10-16T06:56:11;11.10;;;4.93;;
65373;SDS011;52070;53.760;9.678;2022-10-16T06:58:40;9.80;;;3.95;;
65373;SDS011;52070;53.760;9.678;2022-10-16T07:01:07;8.25;;;4.63;;
65373;SDS011;52070;53.760;9.678;2022-10-16T07:03:35;10.40;;;5.32;;
65373;SDS011;52070;53.760;9.678;2022-10-16T07:06:03;12.30;;;5.15;;
65373;SDS011;52070;53.760;9.678;2022-10-16T07:08:33;13.63;;;5.70;;
65373;SDS011;52070;53.760;9.678;2022-10-16T07:11:01;9.77;;;5.13;;
65373;SDS011;52070;53.760;9.678;2022-10-16T07:13:29;12.32;;;5.10;;
65373;SDS011;52070;53.760;9.678;2022-10-16T07:16:03;10.68;;;5.10;;
65373;SDS011;52070;53.760;9.678;2022-10-16T07:18:30;13.40;;;5.57;;
65373;SDS011;52070;53.760;9.678;2022-10-16T07:21:02;10.70;;;5.43;;
65373;SDS011;52070;53.760;9.678;2022-10-16T07:23:30;10.77;;;5.57;;
65373;SDS011;52070;53.760;9.678;2022-10-16T07:25:58;10.73;;;5.20;;
65373;SDS011;52070;53.760;9.678;2022-10-16T07:28:25;11.02;;;4.45;;
65373;SDS011;52070;53.760;9.678;2022-10-16T07:30:52;15.25;;;6.00;;
65373;SDS011;52070;53.760;9.678;2022-10-16T07:33:19;11.32;;;5.90;;
65373;SDS011;52070;53.760;9.678;2022-10-16T07:35:49;10.73;;;6.10;;
65373;SDS011;52070;53.760;9.678;2022-10-16T07:38:17;11.40;;;6.13;;
65373;SDS011;52070;53.760;9.678;2022-10-16T07:40:44;11.68;;;5.60;;
65373;SDS011;52070;53.760;9.678;2022-10-16T07:43:12;7.47;;;4.97;;
65373;SDS011;52070;53.760;9.678;2022-10-16T07:45:46;15.23;;;5.78;;
65373;SDS011;52070;53.760;9.678;2022-10-16T07:48:14;9.07;;;5.38;;
65373;SDS011;52070;53.760;9.678;2022-10-16T07:50:41;8.02;;;4.60;;
65373;SDS011;52070;53.760;9.678;2022-10-16T07:53:08;10.70;;;5.30;;
65373;SDS011;52070;53.760;9.678;2022-10-16T07:55:36;17.00;;;5.13;;
65373;SDS011;52070;53.760;9.678;2022-10-16T07:58:03;10.85;;;5.47;;
65373;SDS011;52070;53.760;9.678;2022-10-16T08:00:32;10.05;;;5.72;;
65373;SDS011;52070;53.760;9.678;2022-10-16T08:02:59;10.15;;;4.70;;
65373;SDS011;52070;53.760;9.678;2022-10-16T08:05:26;9.80;;;4.78;;
65373;SDS011;52070;53.760;9.678;2022-10-16T08:07:54;8.57;;;4.95;;
65373;SDS011;52070;53.760;9.678;2022-10-16T08:10:22;11.43;;;5.20;;
65373;SDS011;52070;53.760;9.678;2022-10-16T08:12:51;15.75;;;5.88;;
65373;SDS011;52070;53.760;9.678;2022-10-16T08:15:24;11.95;;;5.53;;
65373;SDS011;52070;53.760;9.678;2022-10-16T08:17:57;8.13;;;5.13;;
65373;SDS011;52070;53.760;9.678;2022-10-16T08:20:25;10.25;;;4.95;;
65373;SDS011;52070;53.760;9.678;2022-10-16T08:22:52;11.23;;;4.70;;
65373;SDS011;52070;53.760;9.678;2022-10-16T08:25:20;8.32;;;4.63;;
65373;SDS011;52070;53.760;9.678;2022-10-16T08:27:47;7.60;;;4.40;;
65373;SDS011;52070;53.760;9.678;2022-10-16T08:30:15;8.35;;;4.55;;
65373;SDS011;52070;53.760;9.678;2022-10-16T08:32:42;9.13;;;4.50;;
65373;SDS011;52070;53.760;9.678;2022-10-16T08:35:11;7.65;;;4.57;;
65373;SDS011;52070;53.760;9.678;2022-10-16T08:37:39;9.80;;;4.68;;
65373;SDS011;52070;53.760;9.678;2022-10-16T08:40:07;10.73;;;4.45;;
65373;SDS011;52070;53.760;9.678;2022-10-16T08:42:50;11.80;;;4.55;;
65373;SDS011;52070;53.760;9.678;2022-10-16T08:45:34;7.82;;;3.97;;
65373;SDS011;52070;53.760;9.678;2022-10-16T08:48:14;7.15;;;4.07;;
65373;SDS011;52070;53.760;9.678;2022-10-16T08:50:48;10.07;;;3.92;;
65373;SDS011;52070;53.760;9.678;2022-10-16T08:53:17;8.27;;;4.28;;
65373;SDS011;52070;53.760;9.678;2022-10-16T08:55:50;8.38;;;4.03;;
65373;SDS011;52070;53.760;9.678;2022-10-16T08:58:18;8.85;;;4.05;;
65373;SDS011;52070;53.760;9.678;2022-10-16T09:00:48;10.77;;;4.75;;
65373;SDS011;52070;53.760;9.678;2022-10-16T09:03:25;15.55;;;4.47;;
65373;SDS011;52070;53.760;9.678;2022-10-16T09:06:09;8.18;;;3.70;;
65373;SDS011;52070;53.760;9.678;2022-10-16T09:08:46;6.78;;;3.97;;
65373;SDS011;52070;53.760;9.678;2022-10-16T09:11:25;10.27;;;3.47;;
65373;SDS011;52070;53.760;9.678;2022-10-16T09:14:03;12.10;;;3.60;;
65373;SDS011;52070;53.760;9.678;2022-10-16T09:16:38;7.40;;;3.88;;
65373;SDS011;52070;53.760;9.678;2022-10-16T09:19:13;5.13;;;3.42;;
65373;SDS011;52070;53.760;9.678;2022-10-16T09:21:47;7.80;;;3.42;;
65373;SDS011;52070;53.760;9.678;2022-10-16T09:24:16;8.02;;;3.17;;
65373;SDS011;52070;53.760;9.678;2022-10-16T09:26:45;6.80;;;3.10;;
65373;SDS011;52070;53.760;9.678;2022-10-16T09:29:13;6.13;;;2.80;;
65373;SDS011;52070;53.760;9.678;2022-10-16T09:31:40;4.78;;;2.45;;
65373;SDS011;52070;53.760;9.678;2022-10-16T09:34:11;7.30;;;2.65;;
65373;SDS011;52070;53.760;9.678;2022-10-16T09:36:44;8.32;;;2.75;;
65373;SDS011;52070;53.760;9.678;2022-10-16T09:39:14;7.43;;;2.80;;
65373;SDS011;52070;53.760;9.678;2022-10-16T09:41:41;4.65;;;2.70;;
65373;SDS011;52070;53.760;9.678;2022-10-16T09:44:17;11.50;;;2.90;;
65373;SDS011;52070;53.760;9.678;2022-10-16T09:46:47;9.00;;;2.90;;
65373;SDS011;52070;53.760;9.678;2022-10-16T09:49:19;9.05;;;2.97;;
65373;SDS011;52070;53.760;9.678;2022-10-16T09:51:50;8.15;;;2.58;;
65373;SDS011;52070;53.760;9.678;2022-10-16T09:54:19;7.65;;;3.00;;
65373;SDS011;52070;53.760;9.678;2022-10-16T09:56:48;8.50;;;2.80;;
65373;SDS011;52070;53.760;9.678;2022-10-16T09:59:17;6.50;;;2.70;;
65373;SDS011;52070;53.760;9.678;2022-10-16T10:01:46;12.40;;;2.78;;
65373;SDS011;52070;53.760;9.678;2022-10-16T10:04:15;9.68;;;2.45;;
65373;SDS011;52070;53.760;9.678;2022-10-16T10:06:43;8.60;;;2.50;;
65373;SDS011;52070;53.760;9.678;2022-10-16T10:09:20;7.55;;;2.55;;
65373;SDS011;52070;53.760;9.678;2022-10-16T10:11:50;8.88;;;2.30;;
65373;SDS011;52070;53.760;9.678;2022-10-16T10:14:26;6.45;;;2.30;;
65373;SDS011;52070;53.760;9.678;2022-10-16T10:17:09;10.52;;;2.53;;
65373;SDS011;52070;53.760;9.678;2022-10-16T10:19:39;9.75;;;2.30;;
65373;SDS011;52070;53.760;9.678;2022-10-16T10:22:19;7.17;;;2.30;;
65373;SDS011;52070;53.760;9.678;2022-10-16T10:24:56;5.72;;;2.00;;
65373;SDS011;52070;53.760;9.678;2022-10-16T10:27:25;4.28;;;1.58;;
65373;SDS011;52070;53.760;9.678;2022-10-16T10:30:04;6.85;;;1.88;;
65373;SDS011;52070;53.760;9.678;2022-10-16T10:32:39;9.70;;;2.00;;
65373;SDS011;52070;53.760;9.678;2022-10-16T10:35:15;7.35;;;1.63;;
65373;SDS011;52070;53.760;9.678;2022-10-16T10:37:51;8.98;;;1.80;;
65373;SDS011;52070;53.760;9.678;2022-10-16T10:40:42;11.88;;;1.73;;
65373;SDS011;52070;53.760;9.678;2022-10-16T10:43:19;6.68;;;1.75;;
65373;SDS011;52070;53.760;9.678;2022-10-16T10:45:56;4.88;;;1.60;;
65373;SDS011;52070;53.760;9.678;2022-10-16T10:48:32;4.13;;;1.83;;
65373;SDS011;52070;53.760;9.678;2022-10-16T10:51:15;6.82;;;1.95;;
65373;SDS011;52070;53.760;9.678;2022-10-16T10:53:50;5.05;;;1.48;;
65373;SDS011;52070;53.760;9.678;2022-10-16T10:56:34;7.28;;;2.00;;
65373;SDS011;52070;53.760;9.678;2022-10-16T10:59:19;4.47;;;1.60;;
65373;SDS011;52070;53.760;9.678;2022-10-16T11:01:59;6.13;;;1.60;;
65373;SDS011;52070;53.760;9.678;2022-10-16T11:04:37;5.55;;;1.75;;
65373;SDS011;52070;53.760;9.678;2022-10-16T11:07:17;8.38;;;1.40;;
65373;SDS011;52070;53.760;9.678;2022-10-16T11:09:47;5.70;;;1.38;;
65373;SDS011;52070;53.760;9.678;2022-10-16T11:12:19;6.95;;;1.50;;
65373;SDS011;52070;53.760;9.678;2022-10-16T11:14:50;7.55;;;1.30;;
65373;SDS011;52070;53.760;9.678;2022-10-16T11:17:24;3.83;;;1.73;;
65373;SDS011;52070;53.760;9.678;2022-10-16T11:19:56;5.80;;;1.67;;
65373;SDS011;52070;53.760;9.678;2022-10-16T11:22:27;10.68;;;1.60;;
65373;SDS011;52070;53.760;9.678;2022-10-16T11:25:02;6.68;;;1.42;;
65373;SDS011;52070;53.760;9.678;2022-10-16T11:27:40;5.05;;;1.30;;
65373;SDS011;52070;53.760;9.678;2022-10-16T11:30:12;5.38;;;1.35;;
65373;SDS011;52070;53.760;9.678;2022-10-16T11:32:45;7.20;;;1.52;;
65373;SDS011;52070;53.760;9.678;2022-10-16T11:35:19;6.75;;;1.40;;
65373;SDS011;52070;53.760;9.678;2022-10-16T11:37:51;4.60;;;1.38;;
65373;SDS011;52070;53.760;9.678;2022-10-16T11:40:23;8.88;;;1.20;;
65373;SDS011;52070;53.760;9.678;2022-10-16T11:42:56;7.72;;;1.55;;
65373;SDS011;52070;53.760;9.678;2022-10-16T11:45:28;6.20;;;1.23;;
65373;SDS011;52070;53.760;9.678;2022-10-16T11:48:00;6.03;;;1.30;;
65373;SDS011;52070;53.760;9.678;2022-10-16T11:50:31;4.32;;;1.10;;
65373;SDS011;52070;53.760;9.678;2022-10-16T11:53:03;5.07;;;1.08;;
65373;SDS011;52070;53.760;9.678;2022-10-16T11:55:42;8.37;;;1.33;;
65373;SDS011;52070;53.760;9.678;2022-10-16T11:58:15;7.28;;;1.42;;
65373;SDS011;52070;53.760;9.678;2022-10-16T12:00:51;4.50;;;1.20;;
65373;SDS011;52070;53.760;9.678;2022-10-16T12:03:25;5.18;;;1.10;;
65373;SDS011;52070;53.760;9.678;2022-10-16T12:05:58;5.55;;;1.10;;
65373;SDS011;52070;53.760;9.678;2022-10-16T12:08:38;8.15;;;1.52;;
65373;SDS011;52070;53.760;9.678;2022-10-16T12:11:06;7.60;;;1.15;;
65373;SDS011;52070;53.760;9.678;2022-10-16T12:13:37;9.93;;;1.40;;
65373;SDS011;52070;53.760;9.678;2022-10-16T12:16:06;5.75;;;1.50;;
65373;SDS011;52070;53.760;9.678;2022-10-16T12:18:47;10.25;;;1.30;;
65373;SDS011;52070;53.760;9.678;2022-10-16T12:21:15;4.53;;;1.25;;
65373;SDS011;52070;53.760;9.678;2022-10-16T12:23:48;4.22;;;1.17;;
65373;SDS011;52070;53.760;9.678;2022-10-16T12:26:23;11.43;;;1.58;;
65373;SDS011;52070;53.760;9.678;2022-10-16T12:28:52;7.82;;;1.73;;
65373;SDS011;52070;53.760;9.678;2022-10-16T12:31:20;5.05;;;1.15;;
65373;SDS011;52070;53.760;9.678;2022-10-16T12:33:54;3.67;;;1.50;;
65373;SDS011;52070;53.760;9.678;2022-10-16T12:36:28;8.48;;;1.42;;
65373;SDS011;52070;53.760;9.678;2022-10-16T12:38:57;5.85;;;1.00;;
65373;SDS011;52070;53.760;9.678;2022-10-16T12:41:26;3.88;;;1.15;;
65373;SDS011;52070;53.760;9.678;2022-10-16T12:43:55;7.85;;;1.27;;
65373;SDS011;52070;53.760;9.678;2022-10-16T12:46:26;5.72;;;1.20;;
65373;SDS011;52070;53.760;9.678;2022-10-16T12:49:05;9.18;;;1.02;;
65373;SDS011;52070;53.760;9.678;2022-10-16T12:51:46;7.68;;;1.30;;
65373;SDS011;52070;53.760;9.678;2022-10-16T12:54:14;5.90;;;1.30;;
65373;SDS011;52070;53.760;9.678;2022-10-16T12:56:46;6.40;;;1.17;;
65373;SDS011;52070;53.760;9.678;2022-10-16T12:59:26;8.13;;;1.40;;
65373;SDS011;52070;53.760;9.678;2022-10-16T13:02:06;7.78;;;1.63;;
65373;SDS011;52070;53.760;9.678;2022-10-16T13:04:50;5.47;;;1.23;;
65373;SDS011;52070;53.760;9.678;2022-10-16T13:07:38;9.55;;;1.33;;
65373;SDS011;52070;53.760;9.678;2022-10-16T13:10:21;5.97;;;1.10;;
65373;SDS011;52070;53.760;9.678;2022-10-16T13:12:57;6.30;;;1.00;;
65373;SDS011;52070;53.760;9.678;2022-10-16T13:15:41;3.40;;;1.10;;
65373;SDS011;52070;53.760;9.678;2022-10-16T13:18:21;10.27;;;1.52;;
65373;SDS011;52070;53.760;9.678;2022-10-16T13:20:56;5.70;;;1.42;;
65373;SDS011;52070;53.760;9.678;2022-10-16T13:23:42;6.30;;;1.40;;
65373;SDS011;52070;53.760;9.678;2022-10-16T13:26:21;12.27;;;1.45;;
65373;SDS011;52070;53.760;9.678;2022-10-16T13:28:58;7.65;;;1.15;;
65373;SDS011;52070;53.760;9.678;2022-10-16T13:31:27;5.13;;;1.15;;
65373;SDS011;52070;53.760;9.678;2022-10-16T13:33:57;5.50;;;1.38;;
65373;SDS011;52070;53.760;9.678;2022-10-16T13:36:26;7.13;;;1.30;;
65373;SDS011;52070;53.760;9.678;2022-10-16T13:38:59;7.72;;;1.02;;
65373;SDS011;52070;53.760;9.678;2022-10-16T13:41:27;5.10;;;1.42;;
65373;SDS011;52070;53.760;9.678;2022-10-16T13:43:54;6.05;;;1.15;;
65373;SDS011;52070;53.760;9.678;2022-10-16T13:46:23;6.80;;;1.52;;
65373;SDS011;52070;53.760;9.678;2022-10-16T13:48:59;6.93;;;1.40;;
65373;SDS011;52070;53.760;9.678;2022-10-16T13:51:27;4.72;;;1.20;;
65373;SDS011;52070;53.760;9.678;2022-10-16T13:53:56;10.00;;;1.50;;
65373;SDS011;52070;53.760;9.678;2022-10-16T13:56:25;8.32;;;1.45;;
65373;SDS011;52070;53.760;9.678;2022-10-16T13:58:57;8.67;;;1.40;;
65373;SDS011;52070;53.760;9.678;2022-10-16T14:01:25;5.28;;;1.30;;
65373;SDS011;52070;53.760;9.678;2022-10-16T14:04:00;5.65;;;1.30;;
65373;SDS011;52070;53.760;9.678;2022-10-16T14:06:29;7.40;;;1.35;;
65373;SDS011;52070;53.760;9.678;2022-10-16T14:08:58;6.47;;;1.40;;
65373;SDS011;52070;53.760;9.678;2022-10-16T14:11:27;7.85;;;1.35;;
65373;SDS011;52070;53.760;9.678;2022-10-16T14:13:55;9.43;;;1.35;;
65373;SDS011;52070;53.760;9.678;2022-10-16T14:16:23;6.28;;;1.50;;
65373;SDS011;52070;53.760;9.678;2022-10-16T14:18:55;7.28;;;1.55;;
65373;SDS011;52070;53.760;9.678;2022-10-16T14:21:25;6.97;;;2.00;;
65373;SDS011;52070;53.760;9.678;2022-10-16T14:23:53;12.55;;;1.98;;
65373;SDS011;52070;53.760;9.678;2022-10-16T14:26:22;6.30;;;1.50;;
65373;SDS011;52070;53.760;9.678;2022-10-16T14:29:00;7.70;;;1.60;;
65373;SDS011;52070;53.760;9.678;2022-10-16T14:31:31;5.60;;;1.30;;
65373;SDS011;52070;53.760;9.678;2022-10-16T14:34:01;5.70;;;1.20;;
65373;SDS011;52070;53.760;9.678;2022-10-16T14:36:29;13.93;;;1.83;;
65373;SDS011;52070;53.760;9.678;2022-10-16T14:39:01;9.75;;;1.60;;
65373;SDS011;52070;53.760;9.678;2022-10-16T14:41:30;8.55;;;1.42;;
65373;SDS011;52070;53.760;9.678;2022-10-16T14:44:01;8.15;;;1.20;;
65373;SDS011;52070;53.760;9.678;2022-10-16T14:46:30;9.20;;;1.63;;
65373;SDS011;52070;53.760;9.678;2022-10-16T14:49:02;4.38;;;1.17;;
65373;SDS011;52070;53.760;9.678;2022-10-16T14:51:41;10.32;;;1.70;;
65373;SDS011;52070;53.760;9.678;2022-10-16T14:54:10;6.72;;;1.50;;
65373;SDS011;52070;53.760;9.678;2022-10-16T14:56:42;8.88;;;1.88;;
65373;SDS011;52070;53.760;9.678;2022-10-16T14:59:13;11.35;;;1.30;;
65373;SDS011;52070;53.760;9.678;2022-10-16T15:01:43;9.32;;;1.50;;
65373;SDS011;52070;53.760;9.678;2022-10-16T15:04:11;2.40;;;0.90;;
65373;SDS011;52070;53.760;9.678;2022-10-16T15:06:38;8.95;;;1.50;;